Latest Weather Observations for West Roebuck

IDW60801

Issued at 5:35 pm WST Sunday 23 November 2014 (issued every 30 minutes, with the page automatically refreshed every 10 minutes)

About weather observations | Map of weather stations | Latest weather observations for WA | Other Formats
Station Details ID: 003096 Name: WEST ROEBUCK Lat: -17.90 Lon: 122.31 Height: 32.0 m
Data from the previous 72 hours. | See also: Recent months for locations in Western Australia
Date/Time
WST
Temp
°C
App
Temp
°C
Dew
Point
Rel
Hum
%
Delta-T
°C
Wind Press
QNH
hPa
Press
MSL
hPa
Rain
since 9 am
mm
Dir
 
Spd
km/h
Gust
km/h
Spd
kts
Gust
kts
23/05:30pm 30.9 - - - - W 20 32 11 17 - - 0.0
23/05:00pm 32.3 - - - - W 19 28 10 15 - - 0.0
23/04:30pm 32.9 - - - - W 24 33 13 18 - - 0.0
23/04:00pm 33.3 - - - - W 24 32 13 17 - - 0.0
23/03:30pm 34.3 - - - - W 22 35 12 19 - - 0.0
23/03:00pm 34.6 - - - - W 24 33 13 18 - - 0.0
23/02:30pm 35.0 - - - - W 24 35 13 19 - - 0.0
23/02:00pm 35.9 - - - - W 22 30 12 16 - - 0.0
23/01:30pm 36.0 - - - - W 22 32 12 17 - - 0.0
23/01:00pm 35.9 - - - - WSW 20 30 11 16 - - 0.0
23/12:30pm 36.4 - - - - W 20 28 11 15 - - 0.0
23/12:00pm 35.7 - - - - W 19 30 10 16 - - 0.0
23/11:30am 36.0 - - - - W 17 24 9 13 - - 0.0
23/11:00am 35.6 - - - - W 15 24 8 13 - - 0.0
23/10:30am 36.2 - - - - W 17 24 9 13 - - 0.0
23/10:00am 35.2 - - - - WNW 15 24 8 13 - - 0.0
23/09:30am 34.7 - - - - WNW 15 24 8 13 - - 0.0
23/09:00am 34.5 - - - - NW 9 22 5 12 - - 0.0
23/08:30am 34.0 - - - - WNW 11 17 6 9 - - 0.0
23/08:00am 32.1 - - - - NNW 13 19 7 10 - - 0.0
23/07:30am 30.7 - - - - NNW 11 17 6 9 - - 0.0
23/07:00am 29.8 - - - - N 9 13 5 7 - - 0.0
23/06:30am 28.3 - - - - N 9 13 5 7 - - 0.0
23/06:00am 26.3 - - - - NNE 7 9 4 5 - - 0.0
23/05:30am 25.1 - - - - NNE 9 11 5 6 - - 0.0
23/05:00am 24.9 - - - - NNE 7 9 4 5 - - 0.0
23/04:30am 24.6 - - - - N 7 9 4 5 - - 0.0
23/04:00am 24.4 - - - - NW 4 9 2 5 - - 0.0
23/03:30am 24.4 - - - - CALM 0 0 0 0 - - 0.0
23/03:00am 24.8 - - - - W 6 7 3 4 - - 0.0
23/02:30am 25.0 - - - - WNW 9 11 5 6 - - 0.0
23/02:00am 25.3 - - - - NW 7 9 4 5 - - 0.0
23/01:30am 25.4 - - - - WNW 9 11 5 6 - - 0.0
23/01:00am 25.5 - - - - WNW 9 13 5 7 - - 0.0
23/12:30am 25.5 - - - - W 9 11 5 6 - - 0.0
23/12:00am 25.9 - - - - WNW 7 9 4 5 - - 0.0
 
Date/Time
WST
Temp
°C
App
Temp
°C
Dew
Point
Rel
Hum
%
Delta-T
°C
Wind Press
QNH
hPa
Press
MSL
hPa
Rain
since 9 am
mm
Dir
 
Spd
km/h
Gust
km/h
Spd
kts
Gust
kts
22/11:30pm 26.0 - - - - WNW 9 11 5 6 - - 0.0
22/11:00pm 26.2 - - - - W 9 11 5 6 - - 0.0
22/10:30pm 26.3 - - - - WNW 9 13 5 7 - - 0.0
22/10:00pm 26.5 - - - - WNW 9 13 5 7 - - 0.0
22/09:30pm 26.9 - - - - WNW 9 11 5 6 - - 0.0
22/09:00pm 27.1 - - - - W 9 11 5 6 - - 0.0
22/08:30pm 27.3 - - - - W 9 13 5 7 - - 0.0
22/08:00pm 27.6 - - - - W 9 11 5 6 - - 0.0
22/07:30pm 28.0 - - - - WNW 11 13 6 7 - - 0.0
22/07:00pm 28.4 - - - - WNW 9 13 5 7 - - 0.0
22/06:30pm 28.9 - - - - W 11 15 6 8 - - 0.0
22/06:00pm 29.7 - - - - W 15 20 8 11 - - 0.0
22/05:30pm 30.9 - - - - W 17 26 9 14 - - 0.0
22/05:00pm 32.0 - - - - W 19 26 10 14 - - 0.0
22/04:30pm 33.3 - - - - W 19 26 10 14 - - 0.0
22/04:00pm 34.1 - - - - W 20 28 11 15 - - 0.0
22/03:30pm 35.4 - - - - W 20 30 11 16 - - 0.0
22/03:00pm 35.5 - - - - W 19 26 10 14 - - 0.0
22/02:30pm 36.4 - - - - W 20 28 11 15 - - 0.0
22/02:00pm 37.1 - - - - WSW 20 28 11 15 - - 0.0
22/01:30pm 37.2 - - - - WSW 19 28 10 15 - - 0.0
22/01:00pm 37.0 - - - - WSW 20 32 11 17 - - 0.0
22/12:30pm 37.4 - - - - WSW 19 30 10 16 - - 0.0
22/12:00pm 37.5 - - - - WSW 17 26 9 14 - - 0.0
22/11:30am 37.0 - - - - WSW 19 28 10 15 - - 0.0
22/11:00am 36.5 - - - - WSW 17 24 9 13 - - 0.0
22/10:30am 35.0 - - - - SW 20 26 11 14 - - 0.0
22/10:00am 35.0 - - - - WSW 17 26 9 14 - - 0.0
22/09:30am 34.2 - - - - WSW 17 30 9 16 - - 0.0
22/09:00am 34.2 - - - - SW 15 20 8 11 - - 0.0
22/08:30am 33.0 - - - - SW 15 24 8 13 - - 0.0
22/08:00am 32.8 - - - - SSW 15 24 8 13 - - 0.0
22/07:30am 32.3 - - - - WSW 15 20 8 11 - - 0.0
22/07:00am 31.5 - - - - WSW 13 19 7 10 - - 0.0
22/06:30am 30.6 - - - - W 13 17 7 9 - - 0.0
22/06:00am 28.3 - - - - WSW 6 9 3 5 - - 0.0
22/05:30am 26.6 - - - - WNW 7 9 4 5 - - 0.0
22/05:00am 27.0 - - - - NNW 9 11 5 6 - - 0.0
22/04:30am 27.1 - - - - W 9 13 5 7 - - 0.0
22/04:00am 26.2 - - - - NW 7 9 4 5 - - 0.0
22/03:30am 26.2 - - - - NW 7 9 4 5 - - 0.0
22/03:00am 25.8 - - - - WNW 9 11 5 6 - - 0.0
22/02:30am 26.3 - - - - W 9 11 5 6 - - 0.0
22/02:00am 26.7 - - - - W 9 11 5 6 - - 0.0
22/01:30am 27.4 - - - - W 9 13 5 7 - - 0.0
22/01:00am 28.1 - - - - WNW 11 13 6 7 - - 0.0
22/12:30am 28.5 - - - - WNW 11 15 6 8 - - 0.0
22/12:00am 28.6 - - - - WNW 11 15 6 8 - - 0.0
 
Date/Time
WST
Temp
°C
App
Temp
°C
Dew
Point
Rel
Hum
%
Delta-T
°C
Wind Press
QNH
hPa
Press
MSL
hPa
Rain
since 9 am
mm
Dir
 
Spd
km/h
Gust
km/h
Spd
kts
Gust
kts
21/11:30pm 28.7 - - - - WNW 11 17 6 9 - - 0.0
21/11:00pm 28.9 - - - - WNW 9 15 5 8 - - 0.0
21/10:30pm 29.0 - - - - WNW 9 13 5 7 - - 0.0
21/10:00pm 29.1 - - - - WNW 11 15 6 8 - - 0.0
21/09:30pm 28.8 - - - - WNW 9 13 5 7 - - 0.0
21/09:00pm 28.7 - - - - WNW 9 13 5 7 - - 0.0
21/08:30pm 28.3 - - - - WNW 11 13 6 7 - - 0.0
21/08:00pm 28.0 - - - - W 11 13 6 7 - - 0.0
21/07:30pm 28.4 - - - - W 11 15 6 8 - - 0.0
21/07:00pm 28.9 - - - - W 9 13 5 7 - - 0.0
21/06:30pm 29.5 - - - - W 11 15 6 8 - - 0.0
21/06:00pm 30.6 - - - - W 17 24 9 13 - - 0.0
21/05:30pm 32.3 - - - - W 15 20 8 11 - - 0.0
21/05:00pm 33.9 - - - - W 17 24 9 13 - - 0.0
21/04:30pm 34.7 - - - - WSW 19 28 10 15 - - 0.0
21/04:00pm 35.9 - - - - WSW 17 26 9 14 - - 0.0
21/03:30pm 35.9 - - - - WSW 19 26 10 14 - - 0.0
21/03:00pm 36.6 - - - - SW 20 32 11 17 - - 0.0
21/02:30pm 37.0 - - - - W 20 28 11 15 - - 0.0
21/02:00pm 37.5 - - - - W 19 30 10 16 - - 0.0
21/01:30pm 37.7 - - - - WSW 19 30 10 16 - - 0.0
21/01:00pm 37.5 - - - - W 20 28 11 15 - - 0.0
21/12:30pm 37.0 - - - - WSW 20 33 11 18 - - 0.0
21/12:00pm 38.1 - - - - SW 17 28 9 15 - - 0.0
21/11:30am 37.3 - - - - W 17 24 9 13 - - 0.0
21/11:00am 35.5 - - - - WSW 13 20 7 11 - - 0.0
21/10:30am 34.9 - - - - SW 13 24 7 13 - - 0.0
21/10:00am 34.6 - - - - SSW 15 22 8 12 - - 0.0
21/09:30am 34.5 - - - - SW 13 22 7 12 - - 0.0
21/09:00am 32.9 - - - - SW 13 22 7 12 - - 0.0
21/08:30am 32.7 - - - - SW 11 17 6 9 - - 0.0
21/08:00am 32.0 - - - - SW 13 20 7 11 - - 0.0
21/07:30am 31.6 - - - - WSW 15 20 8 11 - - 0.0
21/07:00am 31.7 - - - - WSW 13 20 7 11 - - 0.0
21/06:30am 30.0 - - - - W 7 13 4 7 - - 0.0
21/06:00am 28.6 - - - - W 9 13 5 7 - - 0.0
21/05:30am 27.7 - - - - W 7 9 4 5 - - 0.0
21/05:00am 27.4 - - - - NW 9 11 5 6 - - 0.0
21/04:30am 27.3 - - - - WNW 7 7 4 4 - - 0.0
21/04:00am 27.5 - - - - NNW 7 7 4 4 - - 0.0
21/03:30am 28.0 - - - - SSW 2 6 1 3 - - 0.0
21/03:00am 28.4 - - - - SW 9 13 5 7 - - 0.0
21/02:30am 28.0 - - - - W 9 11 5 6 - - 0.0
21/02:00am 28.0 - - - - CALM 0 0 0 0 - - 0.0
21/01:30am 28.1 - - - - WNW 7 9 4 5 - - 0.0
21/01:00am 28.4 - - - - NW 7 9 4 5 - - 0.0
21/12:30am 28.6 - - - - NW 7 9 4 5 - - 0.0
21/12:00am 28.9 - - - - WNW 9 13 5 7 - - 0.0
 
Date/Time
WST
Temp
°C
App
Temp
°C
Dew
Point
Rel
Hum
%
Delta-T
°C
Wind Press
QNH
hPa
Press
MSL
hPa
Rain
since 9 am
mm
Dir
 
Spd
km/h
Gust
km/h
Spd
kts
Gust
kts
20/11:30pm 28.9 - - - - W 11 15 6 8 - - 0.0
20/11:00pm 28.9 - - - - WNW 9 13 5 7 - - 0.0
20/10:30pm 29.1 - - - - WNW 11 17 6 9 - - 0.0
20/10:00pm 29.1 - - - - WNW 11 13 6 7 - - 0.0
20/09:30pm 29.3 - - - - WNW 11 17 6 9 - - 0.0
20/09:00pm 29.3 - - - - WNW 11 15 6 8 - - 0.0
20/08:30pm 29.4 - - - - WNW 9 13 5 7 - - 0.0
20/08:00pm 29.5 - - - - WNW 13 19 7 10 - - 0.0
20/07:30pm 29.7 - - - - WNW 13 20 7 11 - - 0.0
20/07:00pm 29.7 - - - - WNW 13 17 7 9 - - 0.0
20/06:30pm 30.1 - - - - W 15 22 8 12 - - 0.0
20/06:00pm 30.7 - - - - W 15 22 8 12 - - 0.0

Other Formats:

Comma delimited format used in spreadsheet applications
http://www.bom.gov.au/fwo/IDW60801/IDW60801.95204.axf

JavaScript Object Notation format (JSON) in row-major order
http://www.bom.gov.au/fwo/IDW60801/IDW60801.95204.json